createdAt,value
2018-10-02T00:00:12.104Z,0.00
2018-10-02T00:01:12.222Z,0.00
2018-10-02T00:02:12.131Z,0.00
2018-10-02T00:03:12.129Z,0.00
2018-10-02T00:04:12.139Z,0.00
2018-10-02T00:05:12.166Z,0.00
2018-10-02T00:06:12.324Z,0.00
2018-10-02T00:07:12.250Z,0.00
2018-10-02T00:08:12.266Z,0.00
2018-10-02T00:09:12.229Z,0.00
2018-10-02T00:10:12.241Z,0.00
2018-10-02T00:11:12.403Z,0.00
2018-10-02T00:12:12.274Z,0.00
2018-10-02T00:13:12.274Z,0.00
2018-10-02T00:14:12.300Z,0.00
2018-10-02T00:15:12.323Z,0.00
2018-10-02T00:16:12.481Z,0.00
2018-10-02T00:17:12.407Z,0.00
2018-10-02T00:18:12.367Z,0.00
2018-10-02T00:19:12.386Z,0.00
2018-10-02T00:20:12.407Z,0.00
2018-10-02T00:21:12.561Z,0.00
2018-10-02T00:22:12.422Z,0.00
2018-10-02T00:23:12.461Z,0.00
2018-10-02T00:24:12.450Z,0.00
2018-10-02T00:25:12.485Z,0.00
2018-10-02T00:26:12.497Z,0.00
2018-10-02T00:27:12.602Z,0.00
2018-10-02T00:28:12.552Z,0.00
2018-10-02T00:29:12.516Z,0.00
2018-10-02T00:30:12.589Z,0.00
2018-10-02T00:31:12.557Z,0.00
2018-10-02T00:32:12.897Z,0.00
2018-10-02T00:33:12.580Z,0.00
2018-10-02T00:34:12.589Z,0.00
2018-10-02T00:35:12.613Z,0.00
2018-10-02T00:36:12.634Z,0.00
2018-10-02T00:37:12.660Z,0.00
2018-10-02T00:38:13.131Z,0.00
2018-10-02T00:39:12.722Z,0.00
2018-10-02T00:40:12.678Z,0.00
2018-10-02T00:41:12.756Z,0.00
2018-10-02T00:42:12.733Z,0.00
2018-10-02T00:43:12.848Z,0.00
2018-10-02T00:44:12.762Z,0.00
2018-10-02T00:46:12.778Z,0.00
2018-10-02T00:47:12.799Z,0.00
2018-10-02T00:48:12.965Z,0.00
2018-10-02T00:49:12.835Z,0.00
2018-10-02T00:50:12.826Z,0.00
2018-10-02T00:54:12.892Z,0.00
2018-10-02T00:55:12.921Z,0.00
2018-10-02T00:56:12.932Z,0.00
2018-10-02T00:57:12.986Z,0.00
2018-10-02T00:58:13.119Z,0.00
2018-10-02T00:59:13.019Z,0.00
2018-10-02T01:00:13.028Z,0.00
2018-10-02T01:05:13.059Z,0.00
2018-10-02T01:06:13.067Z,0.00
2018-10-02T01:07:13.096Z,0.00
2018-10-02T01:08:13.274Z,0.00
2018-10-02T01:09:13.129Z,0.00
2018-10-02T01:10:13.142Z,0.00
2018-10-02T01:14:13.193Z,0.00
2018-10-02T01:15:13.207Z,0.00
2018-10-02T01:16:13.237Z,0.00
2018-10-02T01:17:13.253Z,0.00
2018-10-02T01:18:13.413Z,0.00
2018-10-02T01:19:13.255Z,0.00
2018-10-02T01:20:13.330Z,0.00
2018-10-02T01:21:13.311Z,0.00
2018-10-02T01:22:13.369Z,0.00
2018-10-02T01:23:19.318Z,0.00
2018-10-02T01:24:13.329Z,0.00
2018-10-02T01:25:13.347Z,0.00
2018-10-02T01:26:13.379Z,0.00
2018-10-02T01:27:13.394Z,0.00
2018-10-02T01:28:13.499Z,0.00
2018-10-02T01:29:13.407Z,0.00
2018-10-02T01:30:13.415Z,0.00
2018-10-02T01:37:13.545Z,0.00
2018-10-02T01:38:13.638Z,0.00
2018-10-02T01:39:13.553Z,0.00
2018-10-02T01:40:13.567Z,0.00
2018-10-02T01:46:13.668Z,0.00
2018-10-02T01:50:13.726Z,0.00
2018-10-02T01:51:13.739Z,0.00
2018-10-02T01:52:13.759Z,0.00
2018-10-02T01:53:13.916Z,0.00
2018-10-02T01:54:13.774Z,0.00
2018-10-02T01:58:13.997Z,0.00
2018-10-02T01:59:13.858Z,0.00
2018-10-02T02:00:13.892Z,0.00
2018-10-02T02:01:13.896Z,0.00
2018-10-02T02:02:13.952Z,0.00
2018-10-02T02:03:14.016Z,0.00
2018-10-02T02:04:13.947Z,0.00
2018-10-02T02:05:13.952Z,0.00
2018-10-02T02:09:14.002Z,0.00
2018-10-02T02:10:14.011Z,0.00
2018-10-02T02:11:14.031Z,0.00
2018-10-02T02:12:14.041Z,0.00
2018-10-02T02:13:14.170Z,0.00
2018-10-02T02:14:14.070Z,0.00
2018-10-02T02:22:14.200Z,0.00
2018-10-02T02:23:14.245Z,0.00
2018-10-02T02:27:14.279Z,0.00
2018-10-02T02:28:14.492Z,0.00
2018-10-02T02:29:14.306Z,0.00
2018-10-02T02:35:14.387Z,0.00
2018-10-02T02:39:14.433Z,0.00
2018-10-02T02:40:14.441Z,0.00
2018-10-02T02:41:14.497Z,0.00
2018-10-02T02:42:14.475Z,0.00
2018-10-02T02:48:14.729Z,0.00
2018-10-02T02:49:14.591Z,0.00
2018-10-02T02:50:14.611Z,0.00
2018-10-02T02:51:14.601Z,0.00
2018-10-02T02:52:14.627Z,0.00
2018-10-02T02:53:14.694Z,0.00
2018-10-02T02:54:14.669Z,0.00
2018-10-02T02:55:14.677Z,0.00
2018-10-02T02:56:14.702Z,0.00
2018-10-02T02:57:14.694Z,0.00
2018-10-02T02:58:14.767Z,0.00
2018-10-02T02:59:14.726Z,0.00
2018-10-02T03:00:14.739Z,0.00
2018-10-02T03:10:14.884Z,0.00
2018-10-02T03:11:14.918Z,0.00
2018-10-02T03:12:14.915Z,0.00
2018-10-02T03:13:14.976Z,0.00
2018-10-02T03:14:14.952Z,0.00
2018-10-02T03:19:15.006Z,0.00
2018-10-02T03:20:15.040Z,0.00
2018-10-02T03:21:15.044Z,0.00
2018-10-02T03:22:15.077Z,0.00
2018-10-02T03:23:15.237Z,0.00
2018-10-02T03:24:15.089Z,0.00
2018-10-02T03:25:15.108Z,0.00
2018-10-02T03:26:15.117Z,0.00
2018-10-02T03:27:15.141Z,0.00
2018-10-02T03:29:15.169Z,0.00
2018-10-02T03:30:15.181Z,0.00
2018-10-02T03:31:15.198Z,0.00
2018-10-02T03:32:15.226Z,0.00
2018-10-02T03:33:15.310Z,0.00
2018-10-02T03:39:15.309Z,0.00
2018-10-02T03:40:15.305Z,0.00
2018-10-02T03:41:15.344Z,0.00
2018-10-02T03:42:15.349Z,0.00
2018-10-02T03:43:15.472Z,0.00
2018-10-02T03:44:15.382Z,0.00
2018-10-02T03:45:15.387Z,0.00
2018-10-02T03:46:15.395Z,0.00
2018-10-02T03:47:15.430Z,0.00
2018-10-02T03:48:15.527Z,0.00
2018-10-02T03:49:15.455Z,0.00
2018-10-02T03:50:15.472Z,0.00
2018-10-02T03:51:15.489Z,0.00
2018-10-02T03:52:15.476Z,0.00
2018-10-02T03:59:15.759Z,0.00
2018-10-02T04:00:15.603Z,0.00
2018-10-02T04:01:15.627Z,0.00
2018-10-02T04:03:15.652Z,0.00
2018-10-02T04:04:15.725Z,0.00
2018-10-02T04:05:15.724Z,0.00
2018-10-02T04:06:15.737Z,0.00
2018-10-02T04:07:15.724Z,0.00
2018-10-02T04:08:15.713Z,0.00
2018-10-02T04:09:15.775Z,0.00
2018-10-02T04:10:15.740Z,0.00
2018-10-02T04:11:15.861Z,0.00
2018-10-02T04:12:15.766Z,0.00
2018-10-02T04:13:15.850Z,0.00
2018-10-02T04:22:16.071Z,0.00
2018-10-02T04:23:15.921Z,0.00
2018-10-02T04:24:15.963Z,0.00
2018-10-02T04:25:15.976Z,0.00
2018-10-02T04:26:16.022Z,0.00
2018-10-02T04:27:16.117Z,0.00
2018-10-02T04:28:16.037Z,0.00
2018-10-02T04:29:16.023Z,0.00
2018-10-02T04:30:16.045Z,0.00
2018-10-02T04:31:16.072Z,0.00
2018-10-02T04:32:16.117Z,0.00
2018-10-02T04:33:16.104Z,0.00
2018-10-02T04:42:16.196Z,0.00
2018-10-02T04:43:16.379Z,0.00
2018-10-02T04:44:16.247Z,0.00
2018-10-02T04:45:16.243Z,0.00
2018-10-02T04:46:16.317Z,0.00
2018-10-02T04:47:16.305Z,0.00
2018-10-02T04:48:16.326Z,0.00
2018-10-02T04:49:16.328Z,0.00
2018-10-02T04:50:16.346Z,0.00
2018-10-02T04:51:16.337Z,0.00
2018-10-02T04:52:16.395Z,0.00
2018-10-02T04:53:16.434Z,0.00
2018-10-02T04:54:16.578Z,0.00
2018-10-02T04:55:16.405Z,0.00
2018-10-02T04:56:16.420Z,0.00
2018-10-02T04:57:16.432Z,0.00
2018-10-02T05:03:16.517Z,0.00
2018-10-02T05:04:16.626Z,0.00
2018-10-02T05:05:16.548Z,0.00
2018-10-02T05:06:16.557Z,0.00
2018-10-02T05:07:16.563Z,0.00
2018-10-02T05:08:16.636Z,0.00
2018-10-02T05:09:16.730Z,0.00
2018-10-02T05:10:16.655Z,0.00
2018-10-02T05:11:16.614Z,0.00
2018-10-02T05:12:16.630Z,0.00
2018-10-02T05:13:16.642Z,0.00
2018-10-02T05:14:16.820Z,0.00
2018-10-02T05:15:16.676Z,0.00
2018-10-02T05:16:16.684Z,0.00
2018-10-02T05:17:16.697Z,0.00
2018-10-02T05:18:16.708Z,0.00
2018-10-02T05:19:16.844Z,0.00
2018-10-02T05:20:16.741Z,0.00
2018-10-02T05:24:16.969Z,0.00
2018-10-02T05:25:16.862Z,0.00
2018-10-02T05:26:16.852Z,0.00
2018-10-02T05:27:16.866Z,0.00
2018-10-02T05:28:16.859Z,0.00
2018-10-02T05:29:16.912Z,0.00
2018-10-02T05:30:16.900Z,0.00
2018-10-02T05:31:16.895Z,0.00
2018-10-02T05:32:16.922Z,0.00
2018-10-02T05:33:16.938Z,0.00
2018-10-02T05:34:17.103Z,0.00
2018-10-02T05:35:17.149Z,0.00
2018-10-02T05:36:16.968Z,0.00
2018-10-02T05:37:16.973Z,0.00
2018-10-02T05:38:16.998Z,0.00
2018-10-02T05:39:17.073Z,0.00
2018-10-02T05:40:17.042Z,0.00
2018-10-02T05:46:17.108Z,0.00
2018-10-02T05:47:17.138Z,0.00
2018-10-02T05:48:17.130Z,0.00
2018-10-02T05:49:17.213Z,0.00
2018-10-02T05:50:17.171Z,0.00
2018-10-02T05:51:17.194Z,0.00
2018-10-02T05:52:17.203Z,0.00
2018-10-02T05:53:17.226Z,0.00
2018-10-02T05:54:17.332Z,0.00
2018-10-02T05:55:17.247Z,0.00
2018-10-02T05:56:17.245Z,0.00
2018-10-02T05:57:17.267Z,0.00
2018-10-02T05:58:17.344Z,0.00
2018-10-02T05:59:17.441Z,0.00
2018-10-02T06:00:17.305Z,0.00
2018-10-02T06:07:17.396Z,0.00
2018-10-02T06:08:17.473Z,0.00
2018-10-02T06:09:17.612Z,0.00
2018-10-02T06:10:17.432Z,0.00
2018-10-02T06:11:17.507Z,0.00
2018-10-02T06:12:17.500Z,0.00
2018-10-02T06:13:17.497Z,0.00
2018-10-02T06:14:17.612Z,0.00
2018-10-02T06:15:17.539Z,0.00
2018-10-02T06:16:17.536Z,0.00
2018-10-02T06:17:17.562Z,0.00
2018-10-02T06:18:17.550Z,0.00
2018-10-02T06:19:17.725Z,0.00
2018-10-02T06:20:17.588Z,0.00
2018-10-02T06:21:17.620Z,0.00
2018-10-02T06:22:17.611Z,0.00
2018-10-02T06:31:17.786Z,0.00
2018-10-02T06:32:17.843Z,0.00
2018-10-02T06:33:17.772Z,0.00
2018-10-02T06:34:17.798Z,0.00
2018-10-02T06:35:17.813Z,0.00
2018-10-02T06:36:17.818Z,0.00
2018-10-02T06:37:17.991Z,0.00
2018-10-02T06:38:17.992Z,0.00
2018-10-02T06:39:17.861Z,0.00
2018-10-02T06:40:17.863Z,0.00
2018-10-02T06:41:17.882Z,0.00
2018-10-02T06:42:18.101Z,0.00
2018-10-02T06:43:17.894Z,0.00
2018-10-02T06:44:17.930Z,0.00
2018-10-02T06:53:18.091Z,0.00
2018-10-02T06:56:18.094Z,0.00
2018-10-02T06:57:18.223Z,0.00
2018-10-02T06:58:18.117Z,0.00
2018-10-02T06:59:18.142Z,0.00
2018-10-02T07:00:18.214Z,0.00
2018-10-02T07:01:18.165Z,0.00
2018-10-02T07:02:18.227Z,0.00
2018-10-02T07:03:18.194Z,0.00
2018-10-02T07:04:18.217Z,0.00
2018-10-02T07:05:18.225Z,0.00
2018-10-02T07:06:18.239Z,0.00
2018-10-02T07:07:18.358Z,0.00
2018-10-02T07:17:18.543Z,0.00
2018-10-02T07:18:18.392Z,0.00
2018-10-02T07:19:18.407Z,0.00
2018-10-02T07:20:18.417Z,0.00
2018-10-02T07:21:18.472Z,0.00
2018-10-02T07:22:18.637Z,0.00
2018-10-02T07:23:18.469Z,0.00
2018-10-02T07:24:18.478Z,0.00
2018-10-02T07:25:18.518Z,0.00
2018-10-02T07:26:18.510Z,0.00
2018-10-02T07:27:18.838Z,0.00
2018-10-02T07:28:18.601Z,0.00
2018-10-02T07:29:18.580Z,0.00
2018-10-02T07:43:18.777Z,0.00
2018-10-02T07:44:18.784Z,0.00
2018-10-02T07:45:18.776Z,0.00
2018-10-02T07:46:18.811Z,0.00
2018-10-02T07:47:18.854Z,0.00
2018-10-02T07:48:18.897Z,0.00
2018-10-02T07:49:18.944Z,0.00
2018-10-02T07:50:18.862Z,0.00
2018-10-02T08:03:19.505Z,0.00
2018-10-02T08:04:19.133Z,0.00
2018-10-02T08:05:19.121Z,0.00
2018-10-02T08:06:19.091Z,0.00
2018-10-02T08:07:19.107Z,0.00
2018-10-02T08:08:19.166Z,0.00
2018-10-02T08:09:19.131Z,0.00
2018-10-02T08:10:19.145Z,0.00
2018-10-02T08:11:19.148Z,0.00
2018-10-02T08:19:19.297Z,0.00
2018-10-02T08:20:19.271Z,0.00
2018-10-02T08:21:19.292Z,0.00
2018-10-02T08:22:19.355Z,0.00
2018-10-02T08:23:19.318Z,4.00
2018-10-02T08:24:19.455Z,0.00
2018-10-02T08:25:19.406Z,4.00
2018-10-02T08:26:19.371Z,0.00
2018-10-02T08:27:19.502Z,4.00
2018-10-02T08:28:19.389Z,4.00
2018-10-02T08:29:19.407Z,8.00
2018-10-02T08:30:19.689Z,4.00
2018-10-02T08:31:19.447Z,12.00
2018-10-02T08:32:19.432Z,12.00
2018-10-02T08:33:19.476Z,12.00
2018-10-02T08:43:19.722Z,148.00
2018-10-02T08:48:19.677Z,284.00
2018-10-02T08:49:19.833Z,312.00
2018-10-02T08:50:19.821Z,348.00
2018-10-02T09:00:19.851Z,904.00
2018-10-02T09:01:19.947Z,892.00
2018-10-02T09:02:19.873Z,848.00
2018-10-02T09:03:19.899Z,868.00
2018-10-02T09:04:19.926Z,932.00
2018-10-02T09:05:19.934Z,996.00
2018-10-02T09:06:20.087Z,1080.00
2018-10-02T09:18:20.092Z,7188.00
2018-10-02T09:19:20.104Z,7616.00
2018-10-02T09:20:20.117Z,7852.00
2018-10-02T09:21:20.279Z,7952.00
2018-10-02T09:22:20.163Z,8180.00
2018-10-02T09:23:20.171Z,5788.00
2018-10-02T09:24:20.226Z,3476.00
2018-10-02T09:25:20.222Z,3064.00
2018-10-02T09:26:20.386Z,3160.00
2018-10-02T09:39:20.426Z,6608.00
2018-10-02T09:41:20.522Z,7460.00
2018-10-02T09:42:20.524Z,7232.00
2018-10-02T09:43:20.692Z,7964.00
2018-10-02T09:44:20.526Z,8432.00
2018-10-02T09:45:20.564Z,8844.00
2018-10-02T10:02:20.852Z,8420.00
2018-10-02T10:03:20.977Z,9012.00
2018-10-02T10:04:20.897Z,9416.00
2018-10-02T10:05:20.860Z,9560.00
2018-10-02T10:09:20.911Z,10584.00
2018-10-02T10:10:21.106Z,10820.00
2018-10-02T10:11:20.979Z,10876.00
2018-10-02T10:12:20.986Z,10756.00
2018-10-02T10:13:20.990Z,10624.00
2018-10-02T10:14:21.001Z,10524.00
2018-10-02T10:15:21.163Z,10048.00
2018-10-02T10:16:21.047Z,10536.00
2018-10-02T10:17:21.105Z,10852.00
2018-10-02T10:18:21.061Z,11368.00
2018-10-02T10:19:21.101Z,12108.00
2018-10-02T10:20:21.145Z,13116.00
2018-10-02T10:21:21.145Z,14480.00
2018-10-02T10:22:21.197Z,16480.00
2018-10-02T10:23:21.159Z,18048.00
2018-10-02T10:24:21.188Z,21056.00
2018-10-02T10:25:21.347Z,21920.00
2018-10-02T10:26:21.208Z,32992.00
2018-10-02T10:27:21.261Z,47808.00
2018-10-02T10:28:21.260Z,54080.00
2018-10-02T10:29:21.269Z,59200.00
2018-10-02T10:30:21.569Z,68672.00
2018-10-02T10:31:21.281Z,45600.00
2018-10-02T10:32:21.313Z,61184.00
2018-10-02T10:33:21.390Z,31488.00
2018-10-02T10:34:21.402Z,28416.00
2018-10-02T10:35:21.413Z,38816.00
2018-10-02T10:36:21.383Z,22528.00
2018-10-02T10:37:21.405Z,19168.00
2018-10-02T10:38:21.401Z,18208.00
2018-10-02T10:39:21.433Z,22720.00
2018-10-02T10:40:21.669Z,15528.00
2018-10-02T10:41:21.593Z,13616.00
2018-10-02T10:42:21.486Z,13684.00
2018-10-02T10:43:21.508Z,18368.00
2018-10-02T10:44:21.527Z,12928.00
2018-10-02T10:45:21.692Z,11812.00
2018-10-02T10:46:21.616Z,11388.00
2018-10-02T10:47:21.582Z,11304.00
2018-10-02T10:48:21.603Z,11480.00
2018-10-02T10:49:21.607Z,11772.00
2018-10-02T10:50:21.745Z,11728.00
2018-10-02T10:51:21.673Z,11584.00
2018-10-02T10:52:21.711Z,11376.00
2018-10-02T10:53:21.721Z,11468.00
2018-10-02T10:54:21.730Z,11652.00
2018-10-02T10:55:21.903Z,11916.00
2018-10-02T10:56:21.820Z,12436.00
2018-10-02T10:57:21.761Z,12756.00
2018-10-02T10:58:21.820Z,12744.00
2018-10-02T10:59:21.803Z,13184.00
2018-10-02T11:00:22.025Z,13652.00
2018-10-02T11:01:21.847Z,13836.00
2018-10-02T11:02:21.862Z,14168.00
2018-10-02T11:03:21.901Z,15232.00
2018-10-02T11:04:21.954Z,17344.00
2018-10-02T11:05:21.960Z,20448.00
2018-10-02T11:06:21.943Z,24448.00
2018-10-02T11:07:21.962Z,24992.00
2018-10-02T11:08:21.989Z,23776.00
2018-10-02T11:09:22.026Z,21280.00
2018-10-02T11:10:22.119Z,21216.00
2018-10-02T11:11:22.046Z,21600.00
2018-10-02T11:12:22.042Z,21760.00
2018-10-02T11:13:22.056Z,27264.00
2018-10-02T11:14:22.075Z,50496.00
2018-10-02T11:15:22.266Z,59392.00
2018-10-02T11:16:22.115Z,75808.00
2018-10-02T11:17:22.136Z,87936.00
2018-10-02T11:18:22.168Z,104736.00
2018-10-02T11:19:22.178Z,111040.00
2018-10-02T11:20:22.288Z,44864.00
2018-10-02T11:21:22.242Z,106688.00
2018-10-02T11:22:22.247Z,43136.00
2018-10-02T11:23:22.257Z,28128.00
2018-10-02T11:24:22.264Z,58880.00
2018-10-02T11:25:22.406Z,29120.00
2018-10-02T11:26:22.300Z,27072.00
2018-10-02T11:27:22.438Z,11456.00
2018-10-02T11:28:22.380Z,38592.00
2018-10-02T11:29:22.362Z,13696.00
2018-10-02T11:30:22.408Z,11744.00
2018-10-02T11:31:22.509Z,52640.00
2018-10-02T11:32:22.558Z,11764.00
2018-10-02T11:33:22.464Z,12080.00
2018-10-02T11:34:22.483Z,14184.00
2018-10-02T11:35:22.610Z,21984.00
2018-10-02T11:36:22.506Z,24000.00
2018-10-02T11:37:22.750Z,17312.00
2018-10-02T11:38:22.556Z,11468.00
2018-10-02T11:39:22.567Z,11952.00
2018-10-02T11:40:22.615Z,12724.00
2018-10-02T11:41:22.622Z,11716.00
2018-10-02T11:42:22.784Z,11184.00
2018-10-02T11:43:22.719Z,5940.00
2018-10-02T11:44:22.703Z,11360.00
2018-10-02T11:47:22.890Z,13248.00
2018-10-02T11:48:22.753Z,18080.00
2018-10-02T11:49:22.882Z,7112.00
2018-10-02T11:50:22.784Z,41664.00
2018-10-02T11:51:22.833Z,11872.00
2018-10-02T11:52:22.948Z,12396.00
2018-10-02T11:53:22.856Z,41280.00
2018-10-02T11:54:22.889Z,103712.00
2018-10-02T11:55:22.934Z,15648.00
2018-10-02T11:56:22.941Z,110848.00
2018-10-02T11:57:23.113Z,101184.00
2018-10-02T11:58:22.969Z,112224.00
2018-10-02T11:59:22.986Z,29312.00
2018-10-02T12:00:23.035Z,109472.00
2018-10-02T12:01:23.359Z,116000.00
2018-10-02T12:02:23.058Z,106048.00
2018-10-02T12:03:23.186Z,102944.00
2018-10-02T12:04:23.080Z,101280.00
2018-10-02T12:05:23.110Z,99168.00
2018-10-02T12:06:23.194Z,100032.00
2018-10-02T12:07:23.155Z,102752.00
2018-10-02T12:08:23.191Z,104224.00
2018-10-02T12:09:23.200Z,101728.00
2018-10-02T12:10:23.207Z,97056.00
2018-10-02T12:11:23.342Z,97056.00
2018-10-02T12:12:23.313Z,94624.00
2018-10-02T12:13:23.380Z,89440.00
2018-10-02T12:14:23.596Z,84320.00
2018-10-02T12:15:23.416Z,94496.00
2018-10-02T12:16:23.416Z,90592.00
2018-10-02T12:17:23.383Z,78752.00
2018-10-02T12:18:23.399Z,87008.00
2018-10-02T12:19:23.425Z,96672.00
2018-10-02T12:20:23.467Z,100096.00
2018-10-02T12:21:23.478Z,96064.00
2018-10-02T12:22:23.586Z,94912.00
2018-10-02T12:23:23.528Z,92800.00
2018-10-02T12:24:23.557Z,93600.00
2018-10-02T12:25:23.568Z,100512.00
2018-10-02T12:26:23.605Z,95200.00
2018-10-02T12:27:23.695Z,85312.00
2018-10-02T12:28:23.645Z,89376.00
2018-10-02T12:29:23.685Z,98368.00
2018-10-02T12:30:28.122Z,97408.00
2018-10-02T12:31:23.821Z,98496.00
2018-10-02T12:32:23.776Z,98720.00
2018-10-02T12:33:23.769Z,103616.00
2018-10-02T12:34:23.794Z,102848.00
2018-10-02T12:35:23.983Z,87936.00
2018-10-02T12:36:23.851Z,89408.00
2018-10-02T12:37:23.889Z,98240.00
2018-10-02T12:38:24.007Z,100576.00
2018-10-02T12:39:23.999Z,86176.00
2018-10-02T12:40:27.426Z,72960.00
2018-10-02T12:41:23.984Z,29408.00
2018-10-02T12:42:24.032Z,102144.00
2018-10-02T12:43:24.065Z,110944.00
2018-10-02T12:44:24.091Z,77152.00
2018-10-02T12:45:24.148Z,84096.00
2018-10-02T12:46:24.133Z,95104.00
2018-10-02T12:47:24.160Z,96448.00
2018-10-02T12:48:24.280Z,74848.00
2018-10-02T12:49:24.207Z,99392.00
2018-10-02T12:50:24.361Z,92320.00
2018-10-02T12:51:24.284Z,91872.00
2018-10-02T12:52:24.313Z,93824.00
2018-10-02T12:53:24.435Z,94400.00
2018-10-02T12:54:24.354Z,95232.00
2018-10-02T12:55:24.444Z,97024.00
2018-10-02T12:56:24.411Z,97120.00
2018-10-02T12:57:24.443Z,21952.00
2018-10-02T12:58:24.458Z,97824.00
2018-10-02T12:59:24.597Z,97504.00
2018-10-02T13:00:24.584Z,33536.00
2018-10-02T13:01:24.558Z,87072.00
2018-10-02T13:02:24.591Z,90976.00
2018-10-02T13:03:24.718Z,92512.00
2018-10-02T13:04:24.641Z,81344.00
2018-10-02T13:05:24.658Z,84512.00
2018-10-02T13:06:24.700Z,84416.00
2018-10-02T13:07:24.711Z,19648.00
2018-10-02T13:08:24.839Z,85952.00
2018-10-02T13:09:24.776Z,74240.00
2018-10-02T13:10:24.812Z,21184.00
2018-10-02T13:11:24.836Z,13260.00
2018-10-02T13:12:24.859Z,14260.00
2018-10-02T13:13:24.945Z,13044.00
2018-10-02T13:14:24.954Z,13200.00
2018-10-02T13:15:24.931Z,16928.00
2018-10-02T13:16:25.016Z,16768.00
2018-10-02T13:17:25.030Z,15156.00
2018-10-02T13:18:25.175Z,30688.00
2018-10-02T13:19:25.060Z,22208.00
2018-10-02T13:20:25.095Z,12528.00
2018-10-02T13:21:25.107Z,34048.00
2018-10-02T13:22:25.125Z,38208.00
2018-10-02T13:23:25.259Z,16480.00
2018-10-02T13:24:25.195Z,13088.00
2018-10-02T13:25:25.313Z,16560.00
2018-10-02T13:26:25.245Z,46208.00
2018-10-02T13:28:25.427Z,36992.00
2018-10-02T13:29:25.316Z,40960.00
2018-10-02T13:30:25.341Z,27232.00
2018-10-02T13:31:25.346Z,24832.00
2018-10-02T13:32:25.525Z,69088.00
2018-10-02T13:33:25.459Z,35808.00
2018-10-02T13:34:25.470Z,75168.00
2018-10-02T13:35:25.465Z,33824.00
2018-10-02T13:36:25.484Z,74048.00
2018-10-02T13:37:25.513Z,71584.00
2018-10-02T13:38:25.582Z,70208.00
2018-10-02T13:39:25.563Z,69312.00
2018-10-02T13:40:25.579Z,68704.00
2018-10-02T13:41:25.614Z,62144.00
2018-10-02T13:42:25.640Z,37120.00
2018-10-02T13:43:25.713Z,70528.00
2018-10-02T13:44:25.697Z,77696.00
2018-10-02T13:45:25.713Z,77056.00
2018-10-02T13:46:25.764Z,74048.00
2018-10-02T13:47:25.754Z,72320.00
2018-10-02T13:48:25.870Z,67200.00
2018-10-02T13:49:25.871Z,69600.00
2018-10-02T13:50:25.925Z,70976.00
2018-10-02T13:51:25.915Z,66784.00
2018-10-02T13:52:25.907Z,61536.00
2018-10-02T13:53:26.048Z,64064.00
2018-10-02T13:54:25.970Z,36096.00
2018-10-02T13:55:25.994Z,37920.00
2018-10-02T13:56:26.040Z,63456.00
2018-10-02T13:57:26.058Z,61248.00
2018-10-02T13:58:26.181Z,67008.00
2018-10-02T13:59:26.124Z,68000.00
2018-10-02T14:00:26.121Z,69664.00
2018-10-02T14:01:26.269Z,71840.00
2018-10-02T14:02:26.192Z,69728.00
2018-10-02T14:03:26.290Z,65536.00
2018-10-02T14:04:26.247Z,65184.00
2018-10-02T14:05:26.320Z,63936.00
2018-10-02T14:06:26.326Z,65056.00
2018-10-02T14:07:26.338Z,65120.00
2018-10-02T14:08:26.458Z,67040.00
2018-10-02T14:09:26.416Z,67328.00
2018-10-02T14:10:26.441Z,65600.00
2018-10-02T14:11:26.483Z,67232.00
2018-10-02T14:12:26.519Z,67680.00
2018-10-02T14:13:26.563Z,61888.00
2018-10-02T14:14:26.562Z,69888.00
2018-10-02T14:15:26.622Z,59392.00
2018-10-02T14:16:26.600Z,22816.00
2018-10-02T14:17:26.632Z,63648.00
2018-10-02T14:18:26.725Z,56544.00
2018-10-02T14:19:26.709Z,42784.00
2018-10-02T14:20:26.748Z,30336.00
2018-10-02T14:21:26.797Z,56928.00
2018-10-02T14:22:26.807Z,51968.00
2018-10-02T14:23:26.943Z,43872.00
2018-10-02T14:24:26.876Z,64864.00
2018-10-02T14:25:26.865Z,41344.00
2018-10-02T14:33:27.217Z,60352.00
2018-10-02T14:34:27.176Z,56192.00
2018-10-02T14:35:27.211Z,54336.00
2018-10-02T14:36:27.282Z,44416.00
2018-10-02T14:37:27.265Z,39712.00
2018-10-02T14:38:27.329Z,24032.00
2018-10-02T14:39:27.298Z,31520.00
2018-10-02T14:40:27.306Z,39424.00
2018-10-02T14:41:27.367Z,37280.00
2018-10-02T14:42:27.391Z,16548.00
2018-10-02T14:43:27.511Z,24192.00
2018-10-02T14:44:27.434Z,38304.00
2018-10-02T14:45:27.463Z,40672.00
2018-10-02T14:46:27.522Z,37664.00
2018-10-02T14:47:27.529Z,34496.00
2018-10-02T14:48:27.639Z,31808.00
2018-10-02T14:49:27.591Z,30080.00
2018-10-02T14:50:27.612Z,30400.00
2018-10-02T14:51:27.671Z,32448.00
2018-10-02T14:52:27.663Z,31968.00
2018-10-02T14:53:27.835Z,31520.00
2018-10-02T14:54:27.739Z,29056.00
2018-10-02T14:55:27.763Z,25696.00
2018-10-02T14:56:27.807Z,26400.00
2018-10-02T14:57:27.826Z,23456.00
2018-10-02T14:58:27.902Z,21984.00
2018-10-02T15:07:28.167Z,10168.00
2018-10-02T15:08:28.181Z,10816.00
2018-10-02T15:09:28.161Z,11296.00
2018-10-02T15:15:28.316Z,32928.00
2018-10-02T15:16:28.369Z,33248.00
2018-10-02T15:17:28.397Z,32032.00
2018-10-02T15:18:28.523Z,14104.00
2018-10-02T15:19:28.464Z,12932.00
2018-10-02T15:20:28.466Z,12308.00
2018-10-02T15:30:28.771Z,30432.00
2018-10-02T15:31:28.761Z,29856.00
2018-10-02T15:32:28.790Z,30272.00
2018-10-02T15:33:28.812Z,29792.00
2018-10-02T15:34:28.907Z,29152.00
2018-10-02T15:58:54.704Z,22272.00
2018-10-02T15:59:54.768Z,21600.00
2018-10-02T16:00:54.835Z,20704.00
2018-10-02T16:01:54.926Z,20832.00
2018-10-02T16:02:54.868Z,9620.00
2018-10-02T16:03:54.904Z,10080.00
2018-10-02T16:04:54.907Z,10592.00
2018-10-02T16:05:54.952Z,18272.00
2018-10-02T16:06:55.073Z,20544.00
2018-10-02T16:07:55.023Z,20224.00
2018-10-02T16:08:55.071Z,20320.00
2018-10-02T16:09:55.080Z,20000.00
2018-10-02T16:10:55.126Z,20128.00
2018-10-02T16:11:55.249Z,20416.00
2018-10-02T16:12:55.176Z,21056.00
2018-10-02T16:21:04.696Z,10660.00
2018-10-02T16:27:55.660Z,11364.00
2018-10-02T16:30:39.329Z,11348.00
2018-10-02T16:31:39.408Z,11944.00
2018-10-02T16:32:39.391Z,12120.00
2018-10-02T16:33:39.404Z,14100.00
2018-10-02T16:34:48.983Z,12500.00
2018-10-02T16:35:39.681Z,12796.00
2018-10-02T16:36:39.556Z,12716.00
2018-10-02T16:37:39.541Z,12824.00
2018-10-02T16:38:39.578Z,13372.00
2018-10-02T16:39:39.602Z,13424.00
2018-10-02T16:40:39.711Z,14028.00
2018-10-02T16:41:39.649Z,21120.00
2018-10-02T16:42:39.671Z,22048.00
2018-10-02T16:43:39.709Z,22752.00
2018-10-02T16:44:39.741Z,22208.00
2018-10-02T16:45:39.863Z,15392.00
2018-10-02T16:46:39.814Z,14540.00
2018-10-02T16:47:39.820Z,14480.00
2018-10-02T16:48:39.847Z,14548.00
2018-10-02T16:49:39.925Z,14752.00
2018-10-02T16:50:40.022Z,15088.00
2018-10-02T16:51:39.938Z,15412.00
2018-10-02T16:52:39.974Z,15356.00
2018-10-02T16:53:39.973Z,15736.00
2018-10-02T16:54:40.036Z,15880.00
2018-10-02T16:55:40.145Z,16068.00
2018-10-02T16:56:40.112Z,16020.00
2018-10-02T16:57:40.096Z,15976.00
2018-10-02T16:58:40.115Z,15768.00
2018-10-02T16:59:40.156Z,17792.00
2018-10-02T17:00:40.283Z,14304.00
2018-10-02T17:01:40.190Z,14356.00
2018-10-02T17:02:40.286Z,14772.00
2018-10-02T17:03:40.257Z,19712.00
2018-10-02T17:04:40.310Z,21120.00
2018-10-02T17:05:40.424Z,21696.00
2018-10-02T17:06:40.332Z,22016.00
2018-10-02T17:07:40.365Z,22016.00
2018-10-02T17:08:40.394Z,22112.00
2018-10-02T17:09:40.414Z,22336.00
2018-10-02T17:10:40.561Z,16800.00
2018-10-02T17:11:40.474Z,16736.00
2018-10-02T17:12:40.499Z,16416.00
2018-10-02T17:13:40.559Z,15628.00
2018-10-02T17:14:40.558Z,14776.00
2018-10-02T17:15:40.687Z,14964.00
2018-10-02T17:16:40.642Z,18688.00
2018-10-02T17:17:40.659Z,13480.00
2018-10-02T17:18:40.680Z,13064.00
2018-10-02T17:19:40.718Z,12332.00
2018-10-02T17:20:40.857Z,11692.00
2018-10-02T17:21:40.753Z,12280.00
2018-10-02T17:22:40.785Z,11476.00
2018-10-02T17:23:40.828Z,10324.00
2018-10-02T17:24:40.971Z,10272.00
2018-10-02T17:25:40.927Z,10036.00
2018-10-02T17:26:40.905Z,9436.00
2018-10-02T17:27:40.937Z,9404.00
2018-10-02T17:28:40.977Z,9584.00
2018-10-02T17:29:40.999Z,9708.00
2018-10-02T17:30:41.099Z,10352.00
2018-10-02T17:31:41.047Z,10356.00
2018-10-02T17:32:41.128Z,10744.00
2018-10-02T17:33:41.072Z,11284.00
2018-10-02T17:34:41.125Z,12708.00